Terminal Aerodrome Forecast
Issued by NWS

Home | Current Version | Previous Version | Text Only | Print | Product List | Glossary On
Versions: 1 2 3 4 5 6 7 8 9 10 11 12 13
179
FTUS42 TJSJ 061132
TAFJBQ
TAF
TJBQ 061132Z 0612/0712 VRB05KT P6SM FEW025
     FM061500 05010KT P6SM FEW030 SCT040
     FM062300 07008KT P6SM FEW030
      AMD NOT SKED 0702/0711=

USA.gov is the U.S. government's official web portal to all federal, state and local government web resources and services.